Time;durP1;ratioP1;P1;durP2;ratioP2;P2;SDS_P1;SDS_P2;PMS_P1;PMS_P2;Temp;Humidity;BMP_temperature;BMP_pressure;BME280_temperature;BME280_humidity;BME280_pressure;Samples;Min_cycle;Max_cycle;Signal;HPM_P1;HPM_P2
2023/06/10 00:00:20;;;;;;;9.43;5.60;;;28.70;65.80;;;;;;7386884;19;20375;-77
2023/06/10 00:02:49;;;;;;;7.75;5.65;;;28.70;65.80;;;;;;7410436;19;20017;-77
2023/06/10 00:05:21;;;;;;;8.75;5.65;;;28.60;65.80;;;;;;7386697;19;20007;-77
2023/06/10 00:07:55;;;;;;;6.82;5.40;;;28.60;65.90;;;;;;7386646;19;20222;-77
2023/06/10 00:10:25;;;;;;;8.90;5.57;;;28.60;65.60;;;;;;7385991;19;20070;-77
2023/06/10 00:12:53;;;;;;;10.05;5.78;;;28.60;65.60;;;;;;7387107;19;20014;-77
2023/06/10 00:15:22;;;;;;;9.85;5.93;;;28.60;65.90;;;;;;7387579;19;19998;-77
2023/06/10 00:17:54;;;;;;;11.82;6.40;;;28.50;66.50;;;;;;7407970;19;20265;-77
2023/06/10 00:20:24;;;;;;;12.55;6.50;;;28.50;66.50;;;;;;7386844;19;20390;-77
2023/06/10 00:22:57;;;;;;;13.13;5.80;;;28.50;66.30;;;;;;7387460;19;20007;-77
2023/06/10 00:25:26;;;;;;;12.00;5.90;;;28.50;66.20;;;;;;7388227;19;20031;-76
2023/06/10 00:27:55;;;;;;;8.93;5.90;;;28.40;66.30;;;;;;7387022;19;20013;-76
2023/06/10 00:30:24;;;;;;;7.60;5.90;;;28.40;66.20;;;;;;7387187;19;20006;-78
2023/06/10 00:32:53;;;;;;;7.97;6.25;;;28.40;66.20;;;;;;7405061;19;20002;-76
2023/06/10 00:35:21;;;;;;;13.15;5.70;;;28.40;66.30;;;;;;7382707;19;20232;-77
2023/06/10 00:37:51;;;;;;;9.38;6.53;;;28.30;66.30;;;;;;7383942;19;20245;-76
2023/06/10 00:40:22;;;;;;;9.35;5.95;;;28.30;67.20;;;;;;7386685;19;20010;-76
2023/06/10 00:42:51;;;;;;;12.90;6.15;;;28.30;66.50;;;;;;7390660;19;20010;-76
2023/06/10 00:45:20;;;;;;;10.60;6.07;;;28.20;66.50;;;;;;7401219;19;20024;-76
2023/06/10 00:47:48;;;;;;;7.40;5.70;;;28.20;66.70;;;;;;7410379;19;20006;-76
2023/06/10 00:50:17;;;;;;;14.48;6.40;;;28.20;66.70;;;;;;7385145;19;20067;-76
2023/06/10 00:52:48;;;;;;;9.23;6.38;;;28.20;66.90;;;;;;7384406;19;19999;-76
2023/06/10 00:55:19;;;;;;;7.55;5.85;;;28.20;66.90;;;;;;7385259;19;20004;-76
2023/06/10 00:57:51;;;;;;;7.30;5.80;;;28.20;66.80;;;;;;7385818;19;20007;-76
2023/06/10 01:00:20;;;;;;;7.57;6.00;;;28.20;67.00;;;;;;7389404;19;20020;-76
2023/06/10 01:02:49;;;;;;;7.60;5.95;;;28.20;67.10;;;;;;7403818;19;20010;-76
2023/06/10 01:05:18;;;;;;;12.70;5.80;;;28.20;67.00;;;;;;7384506;19;20003;-76
2023/06/10 01:07:55;;;;;;;9.48;5.50;;;28.10;67.10;;;;;;7384378;19;20007;-76
2023/06/10 01:10:31;;;;;;;8.75;6.10;;;28.10;67.20;;;;;;7384596;19;20075;-76
2023/06/10 01:13:08;;;;;;;10.52;6.15;;;28.10;67.40;;;;;;7385215;19;20006;-76
2023/06/10 01:15:37;;;;;;;8.82;6.10;;;28.00;67.50;;;;;;7385254;19;20067;-76
2023/06/10 01:18:09;;;;;;;8.02;5.88;;;28.00;67.50;;;;;;7384482;19;20018;-76
2023/06/10 01:20:39;;;;;;;9.20;5.53;;;28.00;67.70;;;;;;7405746;19;20003;-76
2023/06/10 01:23:11;;;;;;;8.70;5.68;;;28.00;67.70;;;;;;7384897;19;20010;-77
2023/06/10 01:25:42;;;;;;;7.32;5.70;;;28.00;67.70;;;;;;7384166;19;20062;-76
2023/06/10 01:28:16;;;;;;;7.88;5.75;;;28.00;67.70;;;;;;7385095;19;20003;-76
2023/06/10 01:30:51;;;;;;;9.60;6.88;;;27.90;67.80;;;;;;7391192;19;20019;-77
2023/06/10 01:33:32;;;;;;;12.07;7.13;;;27.90;67.70;;;;;;7385400;19;20027;-76
2023/06/10 01:36:01;;;;;;;9.70;6.20;;;27.90;68.70;;;;;;7393254;19;20362;-76
2023/06/10 01:38:36;;;;;;;8.80;6.18;;;27.80;68.00;;;;;;7407919;19;20007;-76
2023/06/10 01:41:07;;;;;;;9.02;5.88;;;27.80;68.00;;;;;;7385074;19;20016;-76
2023/06/10 01:43:37;;;;;;;7.85;5.75;;;27.80;68.00;;;;;;7384445;19;20013;-76
2023/06/10 01:46:05;;;;;;;7.78;5.75;;;27.70;68.00;;;;;;7384473;19;20003;-76
2023/06/10 01:48:34;;;;;;;7.63;5.47;;;27.70;68.00;;;;;;7385061;19;20250;-76
2023/06/10 01:51:03;;;;;;;8.75;6.07;;;27.70;68.00;;;;;;7384077;19;20264;-76
2023/06/10 01:53:34;;;;;;;9.73;6.03;;;27.70;68.10;;;;;;7404074;19;20024;-76
2023/06/10 01:56:03;;;;;;;8.65;5.55;;;27.70;68.20;;;;;;7386922;19;20011;-76
2023/06/10 01:58:32;;;;;;;10.38;5.95;;;27.70;68.20;;;;;;7384213;19;20062;-76
2023/06/10 02:01:00;;;;;;;7.18;5.43;;;27.70;68.20;;;;;;7384168;19;20006;-76
2023/06/10 02:03:29;;;;;;;10.18;5.88;;;27.70;68.20;;;;;;7384158;19;20369;-76
2023/06/10 02:05:58;;;;;;;8.43;5.85;;;27.70;68.30;;;;;;7403768;19;20242;-75
2023/06/10 02:08:27;;;;;;;10.07;5.70;;;27.70;68.50;;;;;;7382914;19;20104;-76
2023/06/10 02:10:58;;;;;;;6.53;4.97;;;27.70;68.50;;;;;;7382150;19;20499;-76
2023/06/10 02:13:27;;;;;;;15.57;5.60;;;27.70;68.50;;;;;;7381773;19;20058;-76
2023/06/10 02:15:56;;;;;;;7.63;5.72;;;27.70;68.30;;;;;;7382274;19;20443;-76
2023/06/10 02:18:26;;;;;;;9.20;5.07;;;27.80;68.30;;;;;;7389416;19;20011;-77
2023/06/10 02:20:55;;;;;;;7.43;5.28;;;27.80;69.10;;;;;;7414468;19;20038;-78
2023/06/10 02:23:24;;;;;;;10.48;5.30;;;27.80;68.30;;;;;;7394581;19;20370;-77
2023/06/10 02:25:53;;;;;;;8.30;5.82;;;27.80;68.30;;;;;;7383932;19;20235;-76
2023/06/10 02:28:24;;;;;;;10.80;5.43;;;27.80;68.30;;;;;;7387798;19;20288;-77
2023/06/10 02:30:54;;;;;;;9.48;6.22;;;27.80;68.30;;;;;;7392768;19;20003;-76
2023/06/10 02:33:24;;;;;;;9.05;6.10;;;27.80;68.40;;;;;;7388386;19;20011;-76
2023/06/10 02:35:53;;;;;;;7.60;5.15;;;27.80;68.60;;;;;;7406226;19;20258;-76
2023/06/10 02:38:22;;;;;;;7.30;5.68;;;27.80;68.70;;;;;;7383235;19;20379;-76
2023/06/10 02:40:51;;;;;;;10.10;6.00;;;27.80;69.60;;;;;;7383845;19;20002;-76
2023/06/10 02:43:19;;;;;;;11.52;5.78;;;27.80;68.80;;;;;;7392976;19;20320;-76
2023/06/10 02:45:51;;;;;;;9.25;5.68;;;27.70;68.90;;;;;;7397916;19;20010;-76
2023/06/10 02:48:19;;;;;;;11.10;5.70;;;27.70;69.20;;;;;;7383478;19;20367;-76
2023/06/10 02:50:48;;;;;;;8.57;5.95;;;27.70;69.30;;;;;;7403310;19;20066;-76
2023/06/10 02:53:17;;;;;;;18.73;5.80;;;27.70;69.30;;;;;;7383541;19;20053;-76
2023/06/10 02:55:45;;;;;;;10.40;5.95;;;27.60;69.40;;;;;;7382764;19;20019;-77
2023/06/10 02:58:15;;;;;;;11.52;5.82;;;27.60;69.40;;;;;;7379309;19;20007;-76
2023/06/10 03:00:44;;;;;;;13.40;5.85;;;27.60;69.50;;;;;;7381344;19;20253;-77
2023/06/10 03:03:16;;;;;;;6.97;5.88;;;27.60;69.40;;;;;;7379561;19;20354;-76
2023/06/10 03:05:44;;;;;;;8.85;6.88;;;27.50;69.60;;;;;;7402809;19;20022;-76
2023/06/10 03:08:13;;;;;;;10.88;6.47;;;27.50;69.70;;;;;;7380800;19;20016;-76
2023/06/10 03:10:42;;;;;;;8.25;6.05;;;27.50;69.70;;;;;;7385607;19;20034;-76
2023/06/10 03:13:11;;;;;;;9.98;5.93;;;27.40;70.50;;;;;;7396824;19;20002;-76
2023/06/10 03:15:40;;;;;;;12.18;6.55;;;27.40;69.80;;;;;;7398808;19;20074;-76
2023/06/10 03:18:09;;;;;;;10.48;6.60;;;27.40;69.80;;;;;;7381688;19;20063;-76
2023/06/10 03:20:40;;;;;;;9.07;6.15;;;27.30;69.90;;;;;;7401504;19;20032;-76
2023/06/10 03:23:09;;;;;;;10.77;5.88;;;27.20;70.20;;;;;;7380003;19;20015;-76
2023/06/10 03:25:38;;;;;;;13.15;6.55;;;27.20;70.40;;;;;;7380402;19;20476;-76
2023/06/10 03:28:07;;;;;;;10.75;6.07;;;27.20;70.50;;;;;;7380475;19;20016;-76
2023/06/10 03:30:35;;;;;;;10.07;6.03;;;27.10;70.60;;;;;;7380227;19;20020;-76
2023/06/10 03:33:04;;;;;;;11.25;6.72;;;27.10;70.80;;;;;;7378458;19;20016;-76
2023/06/10 03:35:34;;;;;;;13.65;6.38;;;27.00;70.90;;;;;;7401300;19;20015;-77
2023/06/10 03:38:06;;;;;;;15.13;6.67;;;27.00;71.10;;;;;;7378604;19;20003;-76
2023/06/10 03:40:37;;;;;;;11.50;6.60;;;26.90;71.30;;;;;;7381791;19;20240;-77
2023/06/10 03:43:05;;;;;;;7.45;5.93;;;26.80;71.30;;;;;;7381624;19;20007;-77
2023/06/10 03:45:34;;;;;;;9.25;6.55;;;26.80;71.40;;;;;;7379803;19;20409;-76
2023/06/10 03:48:04;;;;;;;9.27;6.30;;;26.80;71.60;;;;;;7381649;19;20003;-76
2023/06/10 03:50:36;;;;;;;8.98;6.38;;;26.70;71.60;;;;;;7401185;19;20026;-76
2023/06/10 03:53:07;;;;;;;12.13;6.43;;;26.70;71.60;;;;;;7377283;19;20031;-76
2023/06/10 03:55:36;;;;;;;;;;;26.60;71.80;;;;;;7382031;19;20024;-76
2023/06/10 03:58:04;;;;;;;9.65;6.25;;;26.70;71.80;;;;;;7382112;19;20135;-76
2023/06/10 04:00:41;;;;;;;16.20;6.20;;;26.70;72.50;;;;;;7382372;19;20022;-76
2023/06/10 04:03:14;;;;;;;13.73;6.60;;;26.60;71.50;;;;;;7381022;19;20016;-76
2023/06/10 04:05:43;;;;;;;11.75;6.60;;;26.60;71.60;;;;;;7400758;19;20229;-76
2023/06/10 04:08:15;;;;;;;9.68;6.45;;;26.60;71.70;;;;;;7378616;19;20009;-76
2023/06/10 04:10:43;;;;;;;;;;;26.60;71.70;;;;;;7387699;19;20002;-76
2023/06/10 04:13:14;;;;;;;8.30;6.18;;;26.60;71.90;;;;;;7385648;19;19907;-76
2023/06/10 04:15:43;;;;;;;17.15;6.60;;;26.50;71.90;;;;;;7386895;19;20143;-76
2023/06/10 04:18:11;;;;;;;12.00;6.40;;;26.40;72.10;;;;;;7387101;19;20010;-77
2023/06/10 04:20:40;;;;;;;8.57;6.38;;;26.40;72.30;;;;;;7405625;19;20011;-77
2023/06/10 04:23:09;;;;;;;9.63;6.80;;;26.40;72.50;;;;;;7385600;19;20012;-75
2023/06/10 04:25:40;;;;;;;8.25;5.80;;;26.30;72.40;;;;;;7386188;19;20469;-76
2023/06/10 04:28:08;;;;;;;;;;;26.30;72.60;;;;;;7387313;19;20300;-76
2023/06/10 04:30:37;;;;;;;10.30;6.32;;;26.30;72.40;;;;;;7386285;19;19915;-76
2023/06/10 04:33:06;;;;;;;9.13;5.90;;;26.30;72.30;;;;;;7384655;19;20006;-77
2023/06/10 04:35:35;;;;;;;9.10;6.18;;;26.30;72.40;;;;;;7405028;19;20011;-77
2023/06/10 04:38:05;;;;;;;7.95;6.88;;;26.30;72.50;;;;;;7384342;19;20062;-76
2023/06/10 04:40:34;;;;;;;22.80;6.55;;;26.30;72.60;;;;;;7386096;19;20365;-76
2023/06/10 04:43:06;;;;;;;11.88;7.32;;;26.30;72.60;;;;;;7386621;19;20386;-77
2023/06/10 04:45:35;;;;;;;11.93;6.15;;;26.30;72.70;;;;;;7393785;19;20006;-77
2023/06/10 04:48:04;;;;;;;11.95;6.47;;;26.40;72.70;;;;;;7395113;19;20014;-77
2023/06/10 04:50:32;;;;;;;11.23;6.30;;;26.40;72.60;;;;;;7421539;19;20365;-77
2023/06/10 04:53:01;;;;;;;12.73;6.78;;;26.40;72.60;;;;;;7386838;19;20070;-77
2023/06/10 04:55:30;;;;;;;9.75;6.28;;;26.50;72.50;;;;;;7386247;19;20002;-77
2023/06/10 04:57:59;;;;;;;12.02;6.60;;;26.50;72.50;;;;;;7384784;19;20007;-77
2023/06/10 05:00:30;;;;;;;17.38;6.90;;;26.50;72.50;;;;;;7387749;19;20024;-77
2023/06/10 05:02:59;;;;;;;15.38;6.85;;;26.50;72.50;;;;;;7410728;19;20025;-76
2023/06/10 05:05:28;;;;;;;22.77;6.07;;;26.50;72.70;;;;;;7389270;19;20015;-75
2023/06/10 05:07:57;;;;;;;14.30;6.35;;;26.50;72.60;;;;;;7385935;19;20002;-76
2023/06/10 05:10:26;;;;;;;16.48;6.47;;;26.50;72.70;;;;;;7385116;19;20308;-75
2023/06/10 05:12:55;;;;;;;10.13;5.50;;;26.50;72.50;;;;;;7384462;19;20398;-76
2023/06/10 05:15:23;;;;;;;11.27;6.30;;;26.50;72.50;;;;;;7382712;19;20020;-75
2023/06/10 05:17:55;;;;;;;11.13;5.57;;;26.50;72.40;;;;;;7404320;19;20226;-76
2023/06/10 05:20:25;;;;;;;;;;;26.50;72.30;;;;;;7383024;19;20003;-76
2023/06/10 05:22:55;;;;;;;12.15;5.55;;;26.70;72.30;;;;;;7383774;19;20233;-76
2023/06/10 05:25:24;;;;;;;10.48;5.57;;;26.70;72.10;;;;;;7384708;19;20007;-76
2023/06/10 05:27:53;;;;;;;13.10;5.13;;;26.70;71.70;;;;;;7383096;19;20007;-77
2023/06/10 05:30:25;;;;;;;10.15;5.25;;;26.70;71.30;;;;;;7384306;19;20021;-76
2023/06/10 05:32:56;;;;;;;11.50;4.90;;;26.70;71.10;;;;;;7410532;19;20358;-76
2023/06/10 05:35:25;;;;;;;7.10;4.75;;;26.70;71.00;;;;;;7384079;19;20022;-75
2023/06/10 05:37:53;;;;;;;8.85;5.32;;;26.80;70.90;;;;;;7382337;19;20054;-76
2023/06/10 05:40:23;;;;;;;9.25;5.10;;;26.80;70.70;;;;;;7385493;19;20015;-77
2023/06/10 05:42:51;;;;;;;6.97;4.75;;;26.80;70.60;;;;;;7383648;19;20002;-76
2023/06/10 05:45:22;;;;;;;8.93;5.93;;;26.80;70.60;;;;;;7381882;19;19988;-76
2023/06/10 05:47:51;;;;;;;8.00;5.17;;;26.90;70.60;;;;;;7403720;19;20285;-77
2023/06/10 05:50:22;;;;;;;8.27;5.00;;;26.90;70.30;;;;;;7385428;19;20007;-76
2023/06/10 05:52:53;;;;;;;11.63;5.38;;;26.90;70.50;;;;;;7385267;19;20023;-76
2023/06/10 05:55:22;;;;;;;9.15;5.03;;;26.90;70.20;;;;;;7386733;19;20370;-76
2023/06/10 05:58:00;;;;;;;10.85;5.40;;;27.00;70.50;;;;;;7383435;19;20378;-76
2023/06/10 06:00:30;;;;;;;8.10;4.90;;;27.00;70.60;;;;;;7383244;19;20020;-76
2023/06/10 06:02:59;;;;;;;15.20;5.85;;;27.00;70.50;;;;;;7405335;19;20201;-76
2023/06/10 06:05:34;;;;;;;8.95;5.35;;;27.00;70.40;;;;;;7383436;19;20364;-75
2023/06/10 06:08:03;;;;;;;12.02;5.72;;;27.00;70.30;;;;;;7384688;19;20023;-75
2023/06/10 06:10:32;;;;;;;12.95;6.15;;;27.10;70.30;;;;;;7384629;19;20027;-76
2023/06/10 06:13:01;;;;;;;13.23;5.93;;;27.10;70.30;;;;;;7384326;19;19999;-76
2023/06/10 06:15:30;;;;;;;10.63;5.50;;;27.10;70.20;;;;;;7382798;19;20228;-76
2023/06/10 06:17:58;;;;;;;12.75;5.72;;;27.10;70.00;;;;;;7405221;19;20010;-76
2023/06/10 06:20:30;;;;;;;12.90;5.47;;;27.10;70.00;;;;;;7385019;19;20059;-75
2023/06/10 06:22:59;;;;;;;10.70;5.50;;;27.20;70.10;;;;;;7384236;19;20006;-76
2023/06/10 06:25:27;;;;;;;6.63;4.88;;;27.20;71.10;;;;;;7382461;19;20011;-76
2023/06/10 06:27:56;;;;;;;10.95;5.03;;;27.20;70.00;;;;;;7382775;19;20018;-76
2023/06/10 06:30:25;;;;;;;13.40;5.78;;;27.20;70.00;;;;;;7382259;19;20007;-76
2023/06/10 06:32:55;;;;;;;9.20;5.65;;;27.20;70.10;;;;;;7399068;19;20011;-76
2023/06/10 06:35:23;;;;;;;12.45;5.43;;;27.30;70.00;;;;;;7381646;19;20002;-76
2023/06/10 06:37:55;;;;;;;14.70;5.93;;;27.30;70.20;;;;;;7380493;19;20011;-76
2023/06/10 06:40:23;;;;;;;8.00;5.18;;;27.30;70.10;;;;;;7394761;19;20120;-76
2023/06/10 06:42:52;;;;;;;13.80;5.68;;;27.40;70.00;;;;;;7389989;19;20308;-75
2023/06/10 06:45:21;;;;;;;13.50;5.30;;;27.40;70.10;;;;;;7381904;19;20461;-75
2023/06/10 06:47:50;;;;;;;8.57;5.25;;;27.40;70.00;;;;;;7403212;19;20010;-76
2023/06/10 06:50:19;;;;;;;8.75;4.97;;;27.50;70.10;;;;;;7381665;19;20011;-76
2023/06/10 06:52:47;;;;;;;11.60;5.75;;;27.50;69.70;;;;;;7381066;19;19999;-76
2023/06/10 06:55:19;;;;;;;7.75;5.53;;;27.50;69.50;;;;;;7402031;19;20014;-76
2023/06/10 06:57:47;;;;;;;9.05;5.88;;;27.50;69.60;;;;;;7390868;19;20006;-76
2023/06/10 07:00:17;;;;;;;15.50;6.85;;;27.60;69.60;;;;;;7386035;19;20007;-76
2023/06/10 07:02:45;;;;;;;12.65;6.70;;;27.60;69.60;;;;;;7402212;19;20018;-76
2023/06/10 07:05:14;;;;;;;9.95;6.07;;;27.60;69.60;;;;;;7382066;19;20007;-76
2023/06/10 07:07:43;;;;;;;18.10;8.63;;;27.70;69.50;;;;;;7381358;19;20007;-76
2023/06/10 07:10:12;;;;;;;20.20;6.93;;;27.80;69.60;;;;;;7380866;19;20007;-76
2023/06/10 07:12:43;;;;;;;12.85;5.28;;;27.80;69.50;;;;;;7382628;19;20015;-76
2023/06/10 07:15:12;;;;;;;12.32;6.05;;;27.80;69.30;;;;;;7384458;19;20003;-76
2023/06/10 07:17:41;;;;;;;12.05;6.15;;;27.90;69.10;;;;;;7404517;19;20010;-76
2023/06/10 07:20:11;;;;;;;14.13;5.70;;;27.90;69.30;;;;;;7380204;19;20067;-76
2023/06/10 07:22:40;;;;;;;11.35;6.18;;;27.90;69.30;;;;;;7380639;19;20263;-76
2023/06/10 07:25:09;;;;;;;16.23;5.90;;;27.90;70.30;;;;;;7379889;19;20002;-76
2023/06/10 07:27:38;;;;;;;9.82;6.15;;;28.00;69.50;;;;;;7380696;19;20023;-76
2023/06/10 07:30:11;;;;;;;14.82;5.70;;;28.00;69.60;;;;;;7381082;19;20006;-76
2023/06/10 07:32:40;;;;;;;15.07;6.28;;;28.00;69.70;;;;;;7402225;19;20007;-76
2023/06/10 07:35:13;;;;;;;8.20;5.85;;;28.00;69.50;;;;;;7380568;19;20006;-76
2023/06/10 07:37:41;;;;;;;12.25;6.05;;;28.00;69.60;;;;;;7378835;19;20010;-76
2023/06/10 07:40:13;;;;;;;13.68;6.35;;;28.10;69.60;;;;;;7380337;19;20002;-76
2023/06/10 07:42:43;;;;;;;11.07;5.90;;;28.00;69.60;;;;;;7380747;19;20007;-76
2023/06/10 07:45:14;;;;;;;8.55;6.00;;;28.00;69.70;;;;;;7385088;19;20015;-76
2023/06/10 07:47:43;;;;;;;12.10;5.20;;;27.90;69.70;;;;;;7408960;19;20013;-77
2023/06/10 07:50:12;;;;;;;8.55;5.05;;;27.90;69.90;;;;;;7386829;19;20003;-77
2023/06/10 07:52:42;;;;;;;9.13;5.28;;;28.00;70.20;;;;;;7386610;19;20062;-77
2023/06/10 07:55:11;;;;;;;8.65;5.43;;;28.00;70.30;;;;;;7387139;19;20003;-77
2023/06/10 07:57:40;;;;;;;9.77;5.22;;;28.10;70.20;;;;;;7387490;19;20024;-77
2023/06/10 08:00:10;;;;;;;9.65;4.50;;;28.10;70.20;;;;;;7388051;19;20201;-77
2023/06/10 08:02:41;;;;;;;10.00;5.68;;;28.10;70.30;;;;;;7410045;19;20419;-77
2023/06/10 08:05:13;;;;;;;12.35;5.80;;;28.20;70.50;;;;;;7387739;19;20244;-77
2023/06/10 08:07:41;;;;;;;;;;;28.20;70.40;;;;;;7388470;19;20014;-76
2023/06/10 08:10:13;;;;;;;8.73;5.38;;;28.30;70.30;;;;;;7386711;19;19980;-77
2023/06/10 08:12:42;;;;;;;14.27;5.40;;;28.30;70.20;;;;;;7386691;19;20388;-77
2023/06/10 08:15:11;;;;;;;10.93;5.32;;;28.30;71.00;;;;;;7384242;19;20362;-77
2023/06/10 08:17:44;;;;;;;10.35;5.18;;;28.30;70.20;;;;;;7406963;19;20032;-75
2023/06/10 08:20:13;;;;;;;11.55;4.90;;;28.30;70.20;;;;;;7388709;19;20030;-76
2023/06/10 08:22:43;;;;;;;10.65;6.05;;;28.30;70.20;;;;;;7387789;19;20228;-76
2023/06/10 08:25:13;;;;;;;15.48;5.72;;;28.30;70.20;;;;;;7386324;19;20007;-76
2023/06/10 08:27:42;;;;;;;10.90;5.68;;;28.30;70.20;;;;;;7384552;19;20038;-76
2023/06/10 08:30:13;;;;;;;11.63;5.63;;;28.40;70.10;;;;;;7387945;19;20035;-76
2023/06/10 08:32:44;;;;;;;14.63;5.53;;;28.40;69.90;;;;;;7407560;19;20058;-76
2023/06/10 08:35:13;;;;;;;9.95;4.95;;;28.40;70.00;;;;;;7385362;19;20011;-77
2023/06/10 08:37:41;;;;;;;6.22;4.43;;;28.40;69.90;;;;;;7384650;19;20010;-77
2023/06/10 08:40:11;;;;;;;8.70;4.60;;;28.40;69.60;;;;;;7384916;19;20003;-76
2023/06/10 08:42:45;;;;;;;10.30;4.70;;;28.30;69.40;;;;;;7386238;19;20263;-76
2023/06/10 08:45:20;;;;;;;9.10;4.93;;;28.40;69.70;;;;;;7386117;19;20010;-76
2023/06/10 08:47:56;;;;;;;9.70;4.68;;;28.40;69.80;;;;;;7404708;19;20376;-76
2023/06/10 08:50:26;;;;;;;11.57;4.95;;;28.40;70.00;;;;;;7385141;19;20260;-76
2023/06/10 08:53:01;;;;;;;12.38;4.95;;;28.40;70.00;;;;;;7385214;19;20019;-75
2023/06/10 08:55:33;;;;;;;13.00;4.95;;;28.50;70.20;;;;;;7382667;19;20070;-76
2023/06/10 08:58:03;;;;;;;13.15;4.88;;;28.60;70.30;;;;;;7386099;19;20438;-76
2023/06/10 09:00:33;;;;;;;8.77;4.78;;;28.60;70.20;;;;;;7402457;19;20007;-76
2023/06/10 09:03:04;;;;;;;10.75;4.57;;;28.60;69.50;;;;;;7392066;19;20007;-77
2023/06/10 09:05:36;;;;;;;9.95;4.80;;;28.60;69.50;;;;;;7409443;19;20097;-77
2023/06/10 09:08:06;;;;;;;7.63;4.43;;;28.60;69.60;;;;;;7388261;19;19999;-77
2023/06/10 09:10:35;;;;;;;7.63;4.55;;;28.70;69.80;;;;;;7389776;19;20015;-77
2023/06/10 09:13:04;;;;;;;5.78;4.15;;;28.70;69.90;;;;;;7388323;19;20010;-77
2023/06/10 09:15:34;;;;;;;5.57;4.07;;;28.80;69.70;;;;;;7386941;19;20264;-77
2023/06/10 09:18:05;;;;;;;8.82;4.25;;;28.80;69.50;;;;;;7391560;19;20362;-76
2023/06/10 09:20:34;;;;;;;7.72;4.22;;;28.80;69.60;;;;;;7409810;19;20354;-77
2023/06/10 09:23:03;;;;;;;6.43;4.00;;;28.80;69.80;;;;;;7391094;19;20007;-76
2023/06/10 09:25:39;;;;;;;9.65;3.80;;;28.90;69.70;;;;;;7389908;19;20027;-76
2023/06/10 09:28:18;;;;;;;8.73;4.10;;;28.90;69.30;;;;;;7397947;19;20014;-76
2023/06/10 09:30:47;;;;;;;4.60;3.50;;;28.90;69.40;;;;;;7397446;19;20015;-77
2023/06/10 09:33:21;;;;;;;11.15;3.80;;;29.00;68.90;;;;;;7386234;19;20003;-77
2023/06/10 09:35:51;;;;;;;4.55;3.35;;;29.00;69.00;;;;;;7411034;19;20006;-77
2023/06/10 09:38:26;;;;;;;7.30;3.40;;;29.10;68.70;;;;;;7397732;19;20027;-77
2023/06/10 09:40:57;;;;;;;5.90;3.42;;;29.10;68.40;;;;;;7385651;19;20386;-77
2023/06/10 09:43:26;;;;;;;;;;;29.10;67.70;;;;;;7386209;19;20010;-76
2023/06/10 09:46:00;;;;;;;6.97;3.17;;;29.30;68.00;;;;;;7387677;19;19911;-77
2023/06/10 09:48:37;;;;;;;4.45;2.92;;;29.30;68.00;;;;;;7395305;19;20036;-77
2023/06/10 09:51:13;;;;;;;3.00;2.70;;;29.20;68.10;;;;;;7397850;19;20030;-77
2023/06/10 09:53:44;;;;;;;4.60;2.85;;;29.30;67.00;;;;;;7411977;19;20011;-77
2023/06/10 09:56:13;;;;;;;4.93;3.30;;;29.30;66.70;;;;;;7389862;19;20016;-76
2023/06/10 09:58:43;;;;;;;3.53;2.63;;;29.30;66.40;;;;;;7394198;19;20014;-76
2023/06/10 10:01:13;;;;;;;4.97;2.97;;;29.40;66.60;;;;;;7389678;19;20003;-76
2023/06/10 10:03:52;;;;;;;11.57;2.53;;;29.40;66.50;;;;;;7387068;19;20375;-76
2023/06/10 10:06:22;;;;;;;3.90;2.60;;;29.30;65.80;;;;;;7385458;19;19992;-76
2023/06/10 10:08:57;;;;;;;4.15;2.13;;;29.40;66.30;;;;;;7404318;19;20015;-76
2023/06/10 10:11:26;;;;;;;5.47;3.20;;;29.40;65.50;;;;;;7386116;19;20010;-77
2023/06/10 10:13:55;;;;;;;7.40;2.75;;;29.40;65.90;;;;;;7386575;19;20010;-77
2023/06/10 10:16:28;;;;;;;5.60;3.00;;;29.40;66.00;;;;;;7386994;19;20007;-78
2023/06/10 10:19:06;;;;;;;4.55;2.75;;;29.40;65.00;;;;;;7384325;19;20370;-78
2023/06/10 10:21:40;;;;;;;5.68;2.88;;;29.40;66.20;;;;;;7386346;19;20002;-75
2023/06/10 10:24:17;;;;;;;6.88;3.00;;;29.50;65.30;;;;;;7387788;19;20011;-76
2023/06/10 10:26:48;;;;;;;6.40;2.60;;;29.60;65.10;;;;;;7410587;19;20020;-77
2023/06/10 10:29:25;;;;;;;13.43;6.45;;;29.60;64.80;;;;;;7390446;19;20007;-77
2023/06/10 10:31:55;;;;;;;11.18;3.60;;;29.70;64.80;;;;;;7390565;19;20366;-77
2023/06/10 10:34:32;;;;;;;9.60;3.03;;;29.80;64.80;;;;;;7386817;19;20055;-77
2023/06/10 10:37:01;;;;;;;9.27;3.40;;;29.70;63.80;;;;;;7387139;19;20380;-76
2023/06/10 10:39:30;;;;;;;8.32;2.58;;;29.80;63.70;;;;;;7387866;19;20007;-77
2023/06/10 10:42:00;;;;;;;5.00;2.95;;;29.90;63.60;;;;;;7408035;19;19999;-77
2023/06/10 10:44:33;;;;;;;5.05;2.97;;;29.90;63.50;;;;;;7387188;19;20023;-77
2023/06/10 10:47:05;;;;;;;4.28;3.40;;;30.00;63.90;;;;;;7386600;19;20022;-77
2023/06/10 10:49:39;;;;;;;6.57;2.90;;;30.00;63.30;;;;;;7388331;19;20032;-78
2023/06/10 10:52:14;;;;;;;5.28;3.30;;;30.10;63.70;;;;;;7386373;19;20026;-77
2023/06/10 10:54:47;;;;;;;7.82;3.00;;;30.10;62.90;;;;;;7381453;19;20030;-77
2023/06/10 10:57:18;;;;;;;6.25;4.03;;;30.20;62.10;;;;;;7382224;19;20010;-76
2023/06/10 10:59:55;;;;;;;7.10;3.67;;;30.20;61.80;;;;;;7407913;19;20010;-76
2023/06/10 11:02:43;;;;;;;6.15;3.58;;;30.30;61.70;;;;;;7397464;19;20247;-76
2023/06/10 11:05:18;;;;;;;5.53;3.20;;;30.40;61.70;;;;;;7387382;19;20015;-77
2023/06/10 11:07:56;;;;;;;4.35;3.17;;;30.40;61.90;;;;;;7381866;19;20006;-76
2023/06/10 11:10:32;;;;;;;4.93;2.95;;;30.40;61.80;;;;;;7381387;19;20009;-75
2023/06/10 11:13:02;;;;;;;9.38;3.30;;;30.50;61.70;;;;;;7379873;19;20026;-75
2023/06/10 11:15:32;;;;;;;4.60;3.33;;;30.60;61.90;;;;;;7379655;19;20013;-76
2023/06/10 11:18:17;;;;;;;5.47;3.45;;;30.60;60.90;;;;;;7393026;19;20007;-76
2023/06/10 11:20:55;;;;;;;5.80;3.00;;;30.50;60.40;;;;;;7413406;19;20011;-76
2023/06/10 11:23:37;;;;;;;3.92;3.22;;;30.60;60.50;;;;;;7388806;19;20010;-76
2023/06/10 11:26:34;;;;;;;7.35;4.40;;;30.60;60.90;;;;;;7387758;19;20007;-76
2023/06/10 11:29:12;;;;;;;4.22;3.35;;;30.60;61.20;;;;;;7387778;19;20024;-76
2023/06/10 11:31:48;;;;;;;6.72;4.20;;;30.60;60.70;;;;;;7389603;19;20282;-77
2023/06/10 11:34:24;;;;;;;5.75;3.30;;;30.70;60.10;;;;;;7391435;19;20007;-77
2023/06/10 11:36:57;;;;;;;8.40;3.53;;;30.70;59.70;;;;;;7389351;19;20014;-77
2023/06/10 11:39:29;;;;;;;5.03;3.85;;;30.80;60.10;;;;;;7388544;19;20028;-77
2023/06/10 11:41:58;;;;;;;6.93;3.70;;;30.80;59.90;;;;;;7410225;19;20007;-76
2023/06/10 11:44:33;;;;;;;12.73;4.38;;;30.90;58.90;;;;;;7387833;19;20003;-76
2023/06/10 11:47:02;;;;;;;7.35;3.60;;;31.00;59.20;;;;;;7387403;19;20385;-76
2023/06/10 11:49:30;;;;;;;4.75;3.40;;;31.00;59.10;;;;;;7388767;19;20009;-76
2023/06/10 11:52:02;;;;;;;6.65;3.35;;;31.10;59.00;;;;;;7388295;19;20003;-76
2023/06/10 11:54:30;;;;;;;9.35;3.63;;;31.20;58.60;;;;;;7387610;19;20023;-76
2023/06/10 11:57:03;;;;;;;5.57;3.40;;;31.30;58.70;;;;;;7406888;19;20003;-76
2023/06/10 11:59:32;;;;;;;8.10;5.10;;;31.50;58.20;;;;;;7387255;19;20006;-76
2023/06/10 12:02:01;;;;;;;8.27;4.80;;;31.70;58.60;;;;;;7386754;19;20022;-77
2023/06/10 12:04:30;;;;;;;4.43;3.25;;;31.70;58.70;;;;;;7386936;19;20010;-76
2023/06/10 12:07:01;;;;;;;6.60;4.13;;;31.80;58.60;;;;;;7387293;19;20007;-76
2023/06/10 12:09:32;;;;;;;10.70;3.95;;;31.80;58.80;;;;;;7386787;19;20010;-76
2023/06/10 12:12:05;;;;;;;9.57;5.43;;;31.90;58.80;;;;;;7386039;19;20013;-76
2023/06/10 12:14:56;;;;;;;8.88;5.15;;;31.80;58.50;;;;;;7408089;19;20238;-76
2023/06/10 12:17:27;;;;;;;10.23;3.55;;;32.00;58.20;;;;;;7388484;19;20010;-76
2023/06/10 12:19:56;;;;;;;6.68;3.22;;;31.90;58.20;;;;;;7387386;19;20030;-76
2023/06/10 12:22:27;;;;;;;7.65;3.83;;;31.90;58.60;;;;;;7389982;19;20010;-76
2023/06/10 12:25:03;;;;;;;4.55;3.53;;;32.00;58.70;;;;;;7391055;19;20425;-77
2023/06/10 12:27:32;;;;;;;7.38;3.88;;;32.10;58.80;;;;;;7388705;19;20003;-76
2023/06/10 12:30:04;;;;;;;5.65;3.60;;;32.20;57.10;;;;;;7394771;19;20034;-76
2023/06/10 12:32:40;;;;;;;4.35;3.28;;;32.20;57.10;;;;;;7409689;19;20034;-76
2023/06/10 12:35:11;;;;;;;4.85;3.60;;;32.20;57.20;;;;;;7385545;19;20280;-76
2023/06/10 12:37:43;;;;;;;5.57;3.97;;;32.30;57.70;;;;;;7387021;19;20015;-76
2023/06/10 12:40:13;;;;;;;12.13;4.00;;;32.40;56.40;;;;;;7387136;19;20039;-76
2023/06/10 12:42:42;;;;;;;6.28;3.95;;;32.40;56.30;;;;;;7386332;19;20010;-76
2023/06/10 12:45:13;;;;;;;7.78;3.72;;;32.40;56.40;;;;;;7383417;19;20010;-76
2023/06/10 12:47:42;;;;;;;6.97;4.10;;;32.40;55.60;;;;;;7406992;19;20381;-77
2023/06/10 12:50:14;;;;;;;7.40;3.85;;;32.40;55.80;;;;;;7384980;19;20010;-76
2023/06/10 12:52:45;;;;;;;4.82;3.47;;;32.30;56.10;;;;;;7384955;19;20003;-76
2023/06/10 12:55:14;;;;;;;6.00;4.00;;;32.30;56.10;;;;;;7384657;19;20010;-76
2023/06/10 12:57:52;;;;;;;4.43;3.45;;;32.20;56.30;;;;;;7385497;19;20007;-76
2023/06/10 13:00:25;;;;;;;7.15;3.40;;;32.20;56.60;;;;;;7387028;19;20088;-77
2023/06/10 13:02:54;;;;;;;6.25;3.70;;;32.20;56.80;;;;;;7426103;19;20006;-77